createdAt,value
2018-07-20T00:00:52.089Z,68.11
2018-07-20T00:01:52.084Z,67.54
2018-07-20T00:02:51.432Z,67.91
2018-07-20T00:03:52.085Z,67.91
2018-07-20T00:04:52.585Z,67.63
2018-07-20T00:05:52.584Z,67.41
2018-07-20T00:06:52.587Z,67.41
2018-07-20T00:08:13.582Z,68.40
2018-07-20T00:08:53.090Z,68.36
2018-07-20T00:10:13.285Z,67.88
2018-07-20T00:10:53.088Z,67.88
2018-07-20T00:11:54.517Z,68.07
2018-07-20T00:12:53.083Z,68.17
2018-07-20T00:14:14.593Z,68.17
2018-07-20T00:14:53.591Z,68.84
2018-07-20T00:16:14.586Z,68.27
2018-07-20T00:16:53.608Z,68.46
2018-07-20T00:17:54.084Z,68.46
2018-07-20T00:18:54.094Z,68.55
2018-07-20T00:19:54.095Z,68.36
2018-07-20T00:20:55.102Z,67.88
2018-07-20T00:21:53.699Z,68.07
2018-07-20T00:22:54.589Z,68.17
2018-07-20T00:23:55.582Z,68.27
2018-07-20T00:24:54.582Z,67.50
2018-07-20T00:26:00.018Z,67.69
2018-07-20T00:27:09.092Z,67.79
2018-07-20T00:27:55.085Z,67.79
2018-07-20T00:28:55.088Z,68.65
2018-07-20T00:29:54.679Z,68.17
2018-07-20T00:31:16.584Z,68.55
2018-07-20T00:31:55.582Z,68.74
2018-07-20T00:32:55.584Z,68.55
2018-07-20T00:33:56.084Z,68.74
2018-07-20T00:36:54.458Z,69.51
2018-07-20T00:37:29.941Z,68.74
2018-07-20T00:38:33.468Z,68.17
2018-07-20T00:39:29.971Z,69.32
2018-07-20T00:40:27.968Z,69.03
2018-07-20T00:44:30.934Z,69.42
2018-07-20T00:45:30.282Z,69.42
2018-07-20T00:46:30.948Z,68.65
2018-07-20T00:47:32.873Z,69.23
2018-07-20T00:48:31.441Z,69.70
2018-07-20T00:49:31.441Z,69.13
2018-07-20T00:50:31.417Z,69.23
2018-07-20T00:51:52.940Z,69.32
2018-07-20T00:52:52.940Z,69.03
2018-07-20T00:53:31.940Z,69.23
2018-07-20T00:54:31.940Z,69.19
2018-07-20T00:55:33.914Z,69.95
2018-07-20T00:56:32.443Z,70.09
2018-07-20T00:57:32.441Z,69.48
2018-07-20T00:58:32.440Z,70.15
2018-07-20T00:59:32.941Z,70.62
2018-07-20T01:00:53.941Z,69.95
2018-07-20T01:01:32.946Z,69.76
2018-07-20T01:02:32.940Z,69.67
2018-07-20T01:03:32.545Z,69.48
2018-07-20T01:04:32.672Z,70.24
2018-07-20T01:05:33.481Z,70.18
2018-07-20T01:06:33.436Z,70.15
2018-07-20T01:07:35.373Z,70.15
2018-07-20T01:08:33.940Z,70.15
2018-07-20T01:09:54.940Z,70.05
2018-07-20T01:10:33.943Z,70.15
2018-07-20T01:11:36.873Z,70.24
2018-07-20T01:12:57.873Z,70.18
2018-07-20T01:13:33.796Z,69.95
2018-07-20T01:14:55.440Z,69.70
2018-07-20T01:15:56.904Z,69.60
2018-07-20T01:18:06.293Z,69.99
2018-07-20T01:22:09.238Z,70.53
2018-07-20T01:23:30.247Z,70.43
2018-07-20T01:24:09.258Z,70.53
2018-07-20T01:25:29.811Z,70.72
2018-07-20T01:26:09.806Z,70.34
2018-07-20T01:27:09.018Z,70.62
2018-07-20T01:28:09.741Z,70.43
2018-07-20T01:29:32.744Z,70.15
2018-07-20T01:31:41.510Z,70.53
2018-07-20T01:32:41.450Z,71.01
2018-07-20T01:33:41.518Z,71.20
2018-07-20T01:34:42.018Z,71.01
2018-07-20T01:35:42.018Z,71.20
2018-07-20T01:36:44.990Z,71.58
2018-07-20T01:37:43.015Z,71.48
2018-07-20T01:39:03.517Z,71.30
2018-07-20T01:40:03.519Z,71.68
2018-07-20T01:42:14.030Z,71.77
2018-07-20T01:43:14.040Z,71.68
2018-07-20T01:44:14.029Z,71.87
2018-07-20T01:45:13.629Z,71.58
2018-07-20T01:46:14.577Z,71.68
2018-07-20T01:49:06.938Z,71.97
2018-07-20T01:51:38.442Z,72.06
2018-07-20T01:52:19.450Z,72.12
2018-07-20T01:53:17.454Z,71.64
2018-07-20T01:54:17.951Z,71.77
2018-07-20T01:55:17.950Z,72.12
2018-07-20T01:56:17.950Z,72.12
2018-07-20T01:57:17.949Z,72.60
2018-07-20T01:58:32.450Z,72.69
2018-07-20T01:59:20.455Z,72.60
2018-07-20T02:00:20.452Z,72.98
2018-07-20T02:01:18.449Z,72.88
2018-07-20T02:02:43.910Z,72.60
2018-07-20T02:03:19.959Z,72.69
2018-07-20T02:04:18.949Z,72.88
2018-07-20T02:05:18.950Z,72.98
2018-07-20T02:06:18.949Z,72.88
2018-07-20T02:07:40.454Z,72.79
2018-07-20T02:10:11.831Z,73.17
2018-07-20T02:10:56.836Z,73.27
2018-07-20T02:11:51.836Z,73.94
2018-07-20T02:12:51.338Z,73.08
2018-07-20T02:13:51.337Z,73.08
2018-07-20T02:14:51.338Z,72.79
2018-07-20T02:15:50.854Z,73.08
2018-07-20T02:17:12.838Z,72.88
2018-07-20T02:17:51.841Z,73.65
2018-07-20T02:18:53.270Z,73.27
2018-07-20T02:19:51.878Z,73.08
2018-07-20T02:21:12.418Z,73.27
2018-07-20T02:21:52.340Z,73.08
2018-07-20T02:22:52.339Z,73.94
2018-07-20T02:23:52.339Z,73.36
2018-07-20T02:24:52.338Z,72.88
2018-07-20T02:25:52.846Z,72.69
2018-07-20T02:27:13.848Z,72.69
2018-07-20T02:27:52.840Z,73.27
2018-07-20T02:28:52.838Z,74.04
2018-07-20T02:30:00.336Z,73.75
2018-07-20T02:30:53.339Z,73.36
2018-07-20T02:31:53.339Z,73.46
2018-07-20T02:32:53.338Z,73.84
2018-07-20T02:33:53.838Z,74.32
2018-07-20T02:34:54.836Z,74.22
2018-07-20T02:35:53.840Z,74.32
2018-07-20T02:36:53.842Z,74.13
2018-07-20T02:37:55.771Z,73.84
2018-07-20T02:38:54.341Z,73.75
2018-07-20T02:40:15.341Z,73.75
2018-07-20T02:41:16.271Z,73.75
2018-07-20T02:42:15.840Z,73.65
2018-07-20T02:42:54.838Z,73.75
2018-07-20T02:43:55.840Z,74.13
2018-07-20T02:44:54.839Z,73.36
2018-07-20T02:45:55.343Z,73.08
2018-07-20T02:46:55.338Z,73.65
2018-07-20T02:48:01.340Z,73.75
2018-07-20T02:48:55.338Z,73.08
2018-07-20T02:49:57.270Z,73.36
2018-07-20T02:50:55.838Z,73.17
2018-07-20T02:51:55.838Z,73.27
2018-07-20T02:53:16.838Z,73.75
2018-07-20T02:54:20.780Z,73.55
2018-07-20T02:55:16.568Z,73.71
2018-07-20T02:55:56.334Z,73.99
2018-07-20T02:58:27.974Z,74.19
2018-07-20T03:02:30.182Z,75.71
2018-07-20T03:03:30.933Z,75.49
2018-07-20T03:04:30.934Z,75.30
2018-07-20T03:05:31.434Z,75.20
2018-07-20T03:06:31.435Z,75.68
2018-07-20T03:07:52.433Z,75.78
2018-07-20T03:08:31.445Z,75.87
2018-07-20T03:09:31.939Z,75.62
2018-07-20T03:10:31.934Z,76.39
2018-07-20T03:11:31.967Z,76.45
2018-07-20T03:12:32.434Z,76.64
2018-07-20T03:13:32.432Z,76.10
2018-07-20T03:14:32.434Z,76.39
2018-07-20T03:15:32.441Z,76.00
2018-07-20T03:16:32.434Z,76.00
2018-07-20T03:19:04.221Z,75.91
2018-07-20T03:20:04.220Z,75.68
2018-07-20T03:21:04.288Z,75.87
2018-07-20T03:23:56.972Z,75.78
2018-07-20T03:24:35.335Z,76.25
2018-07-20T03:25:35.980Z,76.64
2018-07-20T03:27:03.419Z,76.45
2018-07-20T03:27:36.479Z,76.16
2018-07-20T03:28:57.479Z,76.92
2018-07-20T03:29:36.481Z,76.73
2018-07-20T03:30:50.980Z,76.73
2018-07-20T03:31:39.918Z,76.82
2018-07-20T03:32:40.441Z,76.92
2018-07-20T03:33:36.977Z,76.92
2018-07-20T03:34:36.980Z,76.39
2018-07-20T03:38:41.157Z,75.81
2018-07-20T03:39:42.597Z,76.96
2018-07-20T03:40:47.597Z,76.77
2018-07-20T03:43:11.896Z,76.86
2018-07-20T03:44:11.907Z,76.20
2018-07-20T03:45:11.911Z,76.57
2018-07-20T03:46:12.403Z,76.67
2018-07-20T03:50:15.210Z,76.29
2018-07-20T03:51:16.208Z,76.39
2018-07-20T03:52:15.284Z,75.71
2018-07-20T03:53:38.711Z,75.91
2018-07-20T03:54:36.712Z,75.71
2018-07-20T03:55:16.772Z,75.91
2018-07-20T03:56:15.707Z,75.81
2018-07-20T03:57:15.720Z,75.62
2018-07-20T03:58:16.210Z,76.00
2018-07-20T04:00:46.869Z,76.82
2018-07-20T04:01:47.598Z,77.11
2018-07-20T04:03:01.595Z,77.01
2018-07-20T04:03:54.094Z,77.21
2018-07-20T04:04:48.112Z,77.59
2018-07-20T04:05:49.094Z,77.40
2018-07-20T04:06:48.108Z,77.40
2018-07-20T04:07:51.567Z,77.44
2018-07-20T04:09:15.600Z,77.34
2018-07-20T04:09:48.592Z,77.06
2018-07-20T04:11:10.597Z,77.53
2018-07-20T04:11:50.529Z,77.06
2018-07-20T04:12:56.091Z,76.86
2018-07-20T04:13:49.098Z,76.67
2018-07-20T04:14:49.092Z,77.25
2018-07-20T04:17:24.280Z,77.63
2018-07-20T04:18:20.851Z,77.63
2018-07-20T04:19:21.348Z,77.44
2018-07-20T04:20:21.351Z,77.15
2018-07-20T04:21:21.354Z,77.34
2018-07-20T04:22:21.348Z,77.44
2018-07-20T04:23:21.853Z,76.86
2018-07-20T04:24:21.850Z,77.06
2018-07-20T04:25:21.866Z,77.15
2018-07-20T04:26:21.315Z,77.25
2018-07-20T04:29:14.570Z,76.96
2018-07-20T04:29:53.572Z,77.34
2018-07-20T04:30:54.571Z,77.63
2018-07-20T04:31:55.049Z,77.06
2018-07-20T04:33:15.071Z,77.25
2018-07-20T04:33:54.071Z,77.25
2018-07-20T04:34:55.042Z,76.96
2018-07-20T04:35:56.049Z,77.63
2018-07-20T04:37:15.572Z,77.53
2018-07-20T04:37:55.528Z,77.63
2018-07-20T04:38:54.629Z,77.44
2018-07-20T04:40:17.078Z,77.15
2018-07-20T04:40:55.073Z,77.44
2018-07-20T04:41:55.072Z,77.53
2018-07-20T04:42:55.105Z,77.44
2018-07-20T04:44:01.074Z,77.92
2018-07-20T04:44:55.576Z,77.63
2018-07-20T04:45:55.571Z,77.53
2018-07-20T04:46:55.574Z,77.82
2018-07-20T04:47:55.572Z,77.44
2018-07-20T04:48:56.080Z,78.11
2018-07-20T04:49:56.079Z,78.49
2018-07-20T04:52:26.834Z,78.11
2018-07-20T04:55:20.094Z,78.53
2018-07-20T04:56:00.100Z,78.05
2018-07-20T04:56:59.115Z,77.67
2018-07-20T04:57:59.601Z,77.95
2018-07-20T04:59:20.602Z,78.14
2018-07-20T04:59:58.965Z,77.19
2018-07-20T05:01:26.601Z,77.28
2018-07-20T05:02:14.103Z,77.28
2018-07-20T05:03:00.108Z,77.57
2018-07-20T05:04:00.103Z,77.76
2018-07-20T05:05:00.102Z,77.48
2018-07-20T05:06:14.637Z,77.76
2018-07-20T05:07:27.603Z,77.28
2018-07-20T05:08:21.602Z,77.28
2018-07-20T05:09:02.534Z,78.24
2018-07-20T05:10:22.101Z,77.67
2018-07-20T05:11:00.333Z,76.84
2018-07-20T05:12:01.100Z,77.00
2018-07-20T05:13:01.106Z,77.28
2018-07-20T05:14:22.601Z,76.75
2018-07-20T05:15:22.601Z,76.90
2018-07-20T05:16:01.602Z,76.94
2018-07-20T05:17:01.634Z,77.04
2018-07-20T05:18:23.109Z,77.23
2018-07-20T05:19:02.096Z,77.13
2018-07-20T05:20:01.449Z,76.75
2018-07-20T05:21:02.101Z,76.94
2018-07-20T05:22:22.681Z,76.46
2018-07-20T05:23:23.606Z,76.84
2018-07-20T05:25:33.975Z,76.65
2018-07-20T05:26:33.982Z,76.46
2018-07-20T05:27:54.437Z,76.37
2018-07-20T05:28:33.538Z,76.18
2018-07-20T05:29:34.492Z,77.13
2018-07-20T05:30:54.701Z,76.69
2018-07-20T05:31:34.483Z,76.79
2018-07-20T05:32:55.482Z,76.60
2018-07-20T05:33:33.961Z,75.83
2018-07-20T05:34:36.414Z,76.69
2018-07-20T05:35:34.982Z,76.60
2018-07-20T05:36:55.982Z,76.02
2018-07-20T05:37:34.979Z,75.73
2018-07-20T05:38:37.488Z,75.93
2018-07-20T05:39:35.489Z,76.12
2018-07-20T05:43:38.754Z,75.77
2018-07-20T05:45:01.218Z,76.15
2018-07-20T05:45:38.195Z,75.77
2018-07-20T05:48:10.439Z,75.58
2018-07-20T05:49:12.446Z,74.91
2018-07-20T05:50:10.448Z,74.24
2018-07-20T05:51:10.946Z,74.62
2018-07-20T05:52:31.944Z,74.33
2018-07-20T05:53:10.945Z,74.57
2018-07-20T05:54:10.948Z,74.27
2018-07-20T05:55:11.445Z,74.95
2018-07-20T05:57:42.831Z,74.47
2018-07-20T05:59:03.837Z,74.37
2018-07-20T05:59:42.838Z,74.66
2018-07-20T06:00:43.338Z,73.90
2018-07-20T06:02:04.339Z,74.60
2018-07-20T06:04:15.355Z,74.41
2018-07-20T06:05:15.365Z,74.69
2018-07-20T06:08:14.509Z,74.12
2018-07-20T06:10:39.020Z,73.39
2018-07-20T06:13:11.277Z,73.68
2018-07-20T06:14:11.354Z,73.00
2018-07-20T06:14:51.742Z,73.52
2018-07-20T06:17:22.018Z,72.85
2018-07-20T06:18:22.016Z,72.50
2018-07-20T06:19:22.449Z,72.22
2018-07-20T06:20:43.516Z,71.93
2018-07-20T06:21:22.497Z,71.55
2018-07-20T06:23:23.605Z,69.72
2018-07-20T06:24:23.453Z,69.43
2018-07-20T06:25:22.109Z,67.61
2018-07-20T06:28:15.396Z,67.83
2018-07-20T06:28:54.404Z,67.54
2018-07-20T06:29:54.406Z,68.02
2018-07-20T06:35:28.315Z,66.04
2018-07-20T06:36:32.053Z,65.27
2018-07-20T06:37:29.058Z,63.45
2018-07-20T06:38:43.560Z,63.38
2018-07-20T06:42:53.375Z,62.16
2018-07-20T06:43:33.392Z,62.16
2018-07-20T06:44:32.384Z,62.16
2018-07-20T06:47:04.135Z,61.22
2018-07-20T06:48:05.144Z,60.94
2018-07-20T06:49:11.145Z,61.04
2018-07-20T06:50:03.747Z,60.84
2018-07-20T06:51:04.646Z,60.55
2018-07-20T06:52:05.685Z,60.20
2018-07-20T06:53:19.147Z,60.00
2018-07-20T06:55:35.701Z,58.56
2018-07-20T06:56:39.880Z,57.40
2018-07-20T06:57:36.448Z,58.27
2018-07-20T06:58:37.901Z,58.78
2018-07-20T06:59:36.952Z,58.30
2018-07-20T07:00:57.951Z,57.24
2018-07-20T07:01:36.947Z,57.05
2018-07-20T07:02:36.960Z,55.89
2018-07-20T07:03:43.449Z,56.18
2018-07-20T07:04:58.449Z,56.21
2018-07-20T07:05:58.449Z,56.40
2018-07-20T07:06:38.920Z,55.34
2018-07-20T07:10:40.899Z,54.40
2018-07-20T07:12:03.338Z,53.83
2018-07-20T07:12:44.339Z,54.31
2018-07-20T07:13:41.404Z,53.44
2018-07-20T07:14:41.399Z,52.89
2018-07-20T07:15:40.773Z,52.69
2018-07-20T07:16:41.406Z,52.57
2018-07-20T07:17:41.907Z,53.47
2018-07-20T07:18:41.133Z,53.08
2018-07-20T07:20:02.906Z,52.21
2018-07-20T07:20:41.912Z,51.44
2018-07-20T07:22:02.558Z,52.40
2018-07-20T07:22:42.407Z,52.23
2018-07-20T07:23:42.425Z,52.23
2018-07-20T07:24:41.883Z,51.27
2018-07-20T07:27:16.157Z,52.62
2018-07-20T07:28:37.171Z,51.07
2018-07-20T07:29:35.162Z,49.55
2018-07-20T07:30:20.661Z,50.33
2018-07-20T07:31:13.933Z,51.01
2018-07-20T07:32:13.997Z,50.04
2018-07-20T07:33:14.681Z,51.01
2018-07-20T07:34:14.669Z,49.29
2018-07-20T07:35:36.165Z,49.29
2018-07-20T07:37:48.039Z,49.10
2018-07-20T07:38:47.503Z,48.32
2018-07-20T07:39:48.003Z,49.00
2018-07-20T07:40:46.570Z,48.81
2018-07-20T07:41:48.068Z,49.39
2018-07-20T07:45:49.908Z,47.28
2018-07-20T07:48:20.675Z,46.25
2018-07-20T07:49:21.436Z,47.02
2018-07-20T07:50:21.419Z,47.69
2018-07-20T07:53:07.190Z,46.92
2018-07-20T07:53:53.210Z,45.37
2018-07-20T07:55:14.246Z,45.37
2018-07-20T07:55:52.848Z,45.86
2018-07-20T07:56:53.698Z,45.68
2018-07-20T07:58:14.698Z,44.81
2018-07-20T07:58:53.182Z,45.01
2018-07-20T07:59:54.195Z,44.93
2018-07-20T08:01:10.130Z,43.19
2018-07-20T08:01:55.631Z,43.00
2018-07-20T08:02:56.137Z,43.09
2018-07-20T08:03:53.626Z,44.06
2018-07-20T08:04:53.732Z,43.77
2018-07-20T08:06:14.832Z,44.54
2018-07-20T08:07:15.906Z,45.42
2018-07-20T08:10:56.892Z,44.76
2018-07-20T08:11:57.615Z,44.20
2018-07-20T08:12:57.613Z,44.01
2018-07-20T08:15:29.888Z,42.94
2018-07-20T08:18:22.453Z,42.85
2018-07-20T08:19:00.810Z,41.99
2018-07-20T08:20:01.457Z,42.67
2018-07-20T08:22:35.233Z,42.67
2018-07-20T08:23:32.581Z,41.80
2018-07-20T08:24:33.238Z,41.22
2018-07-20T08:25:39.740Z,43.26
2018-07-20T08:26:57.720Z,41.61
2018-07-20T08:27:33.736Z,41.89
2018-07-20T08:28:33.738Z,42.29
2018-07-20T08:31:05.519Z,43.08
2018-07-20T08:32:26.520Z,42.89
2018-07-20T08:33:05.529Z,43.08
2018-07-20T08:34:05.152Z,43.86
2018-07-20T08:35:06.033Z,41.82
2018-07-20T08:36:06.022Z,41.82
2018-07-20T08:37:06.024Z,43.01
2018-07-20T08:39:37.802Z,42.13
2018-07-20T08:42:09.325Z,40.19
2018-07-20T08:43:32.335Z,41.18
2018-07-20T08:44:09.336Z,40.89
2018-07-20T08:45:29.941Z,39.92
2018-07-20T08:46:23.860Z,39.34
2018-07-20T08:47:09.200Z,40.01
2018-07-20T08:48:30.833Z,40.11
2018-07-20T08:49:12.365Z,41.38
2018-07-20T08:50:31.330Z,40.03
2018-07-20T08:51:13.764Z,40.33
2018-07-20T08:52:10.331Z,39.65
2018-07-20T08:53:12.829Z,39.75
2018-07-20T08:54:10.870Z,38.96
2018-07-20T08:55:33.271Z,39.45
2018-07-20T08:56:10.378Z,38.57
2018-07-20T08:58:42.643Z,38.31
2018-07-20T08:59:41.994Z,39.67
2018-07-20T09:00:42.102Z,38.79
2018-07-20T09:02:04.147Z,36.16
2018-07-20T09:02:43.173Z,35.88
2018-07-20T09:04:04.153Z,35.60
2018-07-20T09:04:43.167Z,35.11
2018-07-20T09:05:43.648Z,34.72
2018-07-20T09:07:04.667Z,35.21
2018-07-20T09:08:04.647Z,34.72
2018-07-20T09:08:43.651Z,34.82
2018-07-20T09:10:05.162Z,36.28
2018-07-20T09:11:05.148Z,36.96
2018-07-20T09:11:44.147Z,37.93
2018-07-20T09:12:50.649Z,39.10
2018-07-20T09:13:43.808Z,36.47
2018-07-20T09:14:43.865Z,36.08
2018-07-20T09:15:44.648Z,37.64
2018-07-20T09:16:44.655Z,36.87
2018-07-20T09:19:37.465Z,34.94
2018-07-20T09:20:30.526Z,36.20
2018-07-20T09:21:15.953Z,36.88
2018-07-20T09:22:16.059Z,35.71
2018-07-20T09:23:38.975Z,35.61
2018-07-20T09:24:37.972Z,32.40
2018-07-20T09:25:18.444Z,33.18
2018-07-20T09:26:17.481Z,32.60
2018-07-20T09:27:17.472Z,31.43
2018-07-20T09:28:17.509Z,30.94
2018-07-20T09:29:39.905Z,31.43
2018-07-20T09:32:09.494Z,32.23
2018-07-20T09:33:10.250Z,32.79
2018-07-20T09:33:49.252Z,32.23
2018-07-20T09:34:48.848Z,32.42
2018-07-20T09:35:49.750Z,31.64
2018-07-20T09:36:49.108Z,31.54
2018-07-20T09:37:50.709Z,32.23
2018-07-20T09:40:23.508Z,30.28
2018-07-20T09:41:21.519Z,30.67
2018-07-20T09:42:21.002Z,30.49
2018-07-20T09:43:42.094Z,29.81
2018-07-20T09:44:24.027Z,27.95
2018-07-20T09:45:22.019Z,28.34
2018-07-20T09:46:22.016Z,29.81
2018-07-20T09:47:43.521Z,30.49
2018-07-20T09:48:22.516Z,30.41
2018-07-20T09:49:22.521Z,29.53
2018-07-20T09:50:23.017Z,30.51
2018-07-20T09:51:23.059Z,29.24
2018-07-20T09:52:23.040Z,29.53
2018-07-20T09:53:23.016Z,28.25
2018-07-20T09:54:23.017Z,28.54
2018-07-20T09:55:23.517Z,29.13
2018-07-20T09:56:23.521Z,29.24
2018-07-20T09:57:23.522Z,28.45
2018-07-20T09:58:23.527Z,28.75
2018-07-20T09:59:24.111Z,29.74
2018-07-20T10:00:23.255Z,28.38
2018-07-20T10:01:24.017Z,28.28
2018-07-20T10:02:24.038Z,28.58
2018-07-20T10:03:25.952Z,29.46
2018-07-20T10:04:24.520Z,28.58
2018-07-20T10:05:23.881Z,29.85
2018-07-20T10:06:45.516Z,30.44
2018-07-20T10:07:25.017Z,29.18
2018-07-20T10:09:56.918Z,29.86
2018-07-20T10:10:56.926Z,28.40
2018-07-20T10:11:56.425Z,29.18
2018-07-20T10:12:57.420Z,29.56
2018-07-20T10:13:57.429Z,30.05
2018-07-20T10:14:57.437Z,31.02
2018-07-20T10:15:57.433Z,29.57
2018-07-20T10:16:57.927Z,30.16
2018-07-20T10:17:57.944Z,30.94
2018-07-20T10:18:57.941Z,28.59
2018-07-20T10:19:57.928Z,28.68
2018-07-20T10:21:12.425Z,29.36
2018-07-20T10:21:58.432Z,30.24
2018-07-20T10:22:58.427Z,29.75
2018-07-20T10:23:58.444Z,29.85
2018-07-20T10:24:58.938Z,29.07
2018-07-20T10:26:19.941Z,28.47
2018-07-20T10:27:00.927Z,29.56
2018-07-20T10:31:23.585Z,28.29
2018-07-20T10:32:02.585Z,30.93
2018-07-20T10:33:02.590Z,29.36
2018-07-20T10:34:24.113Z,28.49
2018-07-20T10:35:03.084Z,28.97
2018-07-20T10:36:03.086Z,28.58
2018-07-20T10:37:03.086Z,29.75
2018-07-20T10:38:05.593Z,30.34
2018-07-20T10:39:03.597Z,29.38
2018-07-20T10:40:04.585Z,29.67
2018-07-20T10:41:03.585Z,28.68
2018-07-20T10:42:06.085Z,28.19
2018-07-20T10:44:56.493Z,27.03
2018-07-20T10:45:35.573Z,28.22
2018-07-20T10:46:35.507Z,28.52
2018-07-20T10:47:56.500Z,28.22
2018-07-20T10:48:35.108Z,29.30
2018-07-20T10:49:37.932Z,28.42
2018-07-20T10:50:35.380Z,26.95
2018-07-20T10:51:36.002Z,26.86
2018-07-20T10:52:36.511Z,28.32
2018-07-20T10:53:39.499Z,28.13
2018-07-20T10:54:35.863Z,26.95
2018-07-20T10:55:36.500Z,26.46
2018-07-20T10:56:57.112Z,26.07
2018-07-20T10:57:37.012Z,26.37
2018-07-20T11:00:23.072Z,28.22
2018-07-20T11:01:10.987Z,28.61
2018-07-20T11:02:09.055Z,28.14
2018-07-20T11:03:09.086Z,25.49
2018-07-20T11:04:32.600Z,26.66
2018-07-20T11:05:30.579Z,26.56
2018-07-20T11:06:13.989Z,28.03
2018-07-20T11:09:03.837Z,26.95
2018-07-20T11:10:25.374Z,27.73
2018-07-20T11:11:06.306Z,27.73
2018-07-20T11:12:04.420Z,27.34
2018-07-20T11:20:41.885Z,25.88
2018-07-20T11:21:41.895Z,26.66
2018-07-20T11:22:41.376Z,27.54
2018-07-20T11:23:42.384Z,26.66
2018-07-20T11:25:03.893Z,26.56
2018-07-20T11:25:42.378Z,26.37
2018-07-20T11:26:42.377Z,26.95
2018-07-20T11:27:44.881Z,26.95
2018-07-20T11:28:42.987Z,25.68
2018-07-20T11:29:44.879Z,26.46
2018-07-20T11:30:42.881Z,26.18
2018-07-20T11:31:43.379Z,25.79
2018-07-20T11:33:04.378Z,25.70
2018-07-20T11:33:43.396Z,25.31
2018-07-20T11:34:44.418Z,23.93
2018-07-20T11:35:46.812Z,25.01
2018-07-20T11:38:15.270Z,25.01
2018-07-20T11:39:15.347Z,24.92
2018-07-20T11:40:14.728Z,25.11
2018-07-20T11:41:36.777Z,25.12
2018-07-20T11:42:15.780Z,24.81
2018-07-20T11:44:49.810Z,24.32
2018-07-20T11:47:40.848Z,24.91
2018-07-20T11:48:21.318Z,24.14
2018-07-20T11:51:13.927Z,24.44
2018-07-20T11:53:43.583Z,26.70
2018-07-20T11:55:54.104Z,23.57
2018-07-20T11:58:48.623Z,22.49
2018-07-20T12:01:56.556Z,24.35
2018-07-20T12:03:03.158Z,23.66
2018-07-20T12:07:21.412Z,23.46
2018-07-20T12:07:59.776Z,22.97
2018-07-20T12:09:20.901Z,23.86
2018-07-20T12:10:03.851Z,23.57
2018-07-20T12:11:21.916Z,23.86
2018-07-20T12:13:32.943Z,24.36
2018-07-20T12:14:32.455Z,24.07
2018-07-20T12:15:33.449Z,24.84
2018-07-20T12:30:54.609Z,21.55
2018-07-20T12:31:49.612Z,20.76
2018-07-20T12:33:12.114Z,20.47
2018-07-20T12:33:48.350Z,20.66
2018-07-20T12:36:20.627Z,20.37
2018-07-20T12:37:23.567Z,21.25
2018-07-20T12:38:20.635Z,22.33
2018-07-20T12:39:21.142Z,22.83
2018-07-20T12:40:42.141Z,21.45
2018-07-20T12:41:24.070Z,22.83
2018-07-20T12:42:21.135Z,21.96
2018-07-20T12:43:43.596Z,21.27
2018-07-20T12:44:20.827Z,22.84
2018-07-20T12:45:42.638Z,22.83
2018-07-20T12:46:23.605Z,21.56
2018-07-20T12:47:21.636Z,21.36
2018-07-20T12:49:53.432Z,20.99
2018-07-20T12:52:24.977Z,21.19
2018-07-20T12:53:24.981Z,19.92
2018-07-20T12:54:24.977Z,19.73
2018-07-20T12:57:17.750Z,19.74
2018-07-20T12:59:30.267Z,19.36
2018-07-20T13:00:28.275Z,19.75
2018-07-20T13:01:28.275Z,19.35
2018-07-20T13:02:34.774Z,18.56
2018-07-20T13:03:34.776Z,19.06
2018-07-20T13:04:35.774Z,19.54
2018-07-20T13:05:32.208Z,19.35
2018-07-20T13:06:50.275Z,19.06
2018-07-20T13:07:30.737Z,20.33
2018-07-20T13:08:52.249Z,18.76
2018-07-20T13:09:50.283Z,18.27
2018-07-20T13:10:35.782Z,17.69
2018-07-20T13:11:30.751Z,18.67
2018-07-20T13:12:31.777Z,18.96
2018-07-20T13:13:29.809Z,19.15
2018-07-20T13:14:44.283Z,19.04
2018-07-20T13:15:30.277Z,19.43
2018-07-20T13:16:44.276Z,19.71
2018-07-20T13:17:30.273Z,21.19
2018-07-20T13:18:32.791Z,21.37
2018-07-20T13:19:30.778Z,20.77
2018-07-20T13:20:30.166Z,21.34
2018-07-20T13:21:30.777Z,20.35
2018-07-20T13:24:02.550Z,20.45
2018-07-20T13:25:02.602Z,21.13
2018-07-20T13:26:03.067Z,21.63
2018-07-20T13:27:27.985Z,22.02
2018-07-20T13:28:03.054Z,22.12
2018-07-20T13:29:03.053Z,22.91
2018-07-20T13:30:25.986Z,22.71
2018-07-20T13:32:34.969Z,21.24
2018-07-20T13:33:34.456Z,22.91
2018-07-20T13:34:35.477Z,22.33
2018-07-20T13:35:35.488Z,21.25
2018-07-20T13:36:35.525Z,21.35
2018-07-20T13:37:35.005Z,22.03
2018-07-20T13:38:35.117Z,21.45
2018-07-20T13:43:00.356Z,21.86
2018-07-20T13:45:12.754Z,21.48
2018-07-20T13:49:14.070Z,19.82
2018-07-20T13:50:35.080Z,19.14
2018-07-20T13:51:14.073Z,19.06
2018-07-20T13:52:36.620Z,18.76
2018-07-20T13:53:20.575Z,18.77
2018-07-20T13:54:14.573Z,19.34
2018-07-20T13:55:14.591Z,18.76
2018-07-20T13:58:07.342Z,18.95
2018-07-20T13:58:46.846Z,18.48
2018-07-20T14:00:06.950Z,18.09
2018-07-20T14:02:38.486Z,17.33
2018-07-20T14:03:38.588Z,17.14
2018-07-20T14:04:41.235Z,17.24
2018-07-20T14:05:17.849Z,17.25
2018-07-20T14:06:18.750Z,17.55
2018-07-20T14:07:39.739Z,17.25
2018-07-20T14:08:32.756Z,16.38
2018-07-20T14:12:22.029Z,14.01
2018-07-20T14:13:22.036Z,15.20
2018-07-20T14:14:21.530Z,15.10
2018-07-20T14:15:22.536Z,15.10
2018-07-20T14:16:22.538Z,16.49
2018-07-20T14:17:23.532Z,17.29
2018-07-20T14:18:22.552Z,16.29
2018-07-20T14:19:23.034Z,16.19
2018-07-20T14:22:15.475Z,16.19
2018-07-20T14:22:54.479Z,16.00
2018-07-20T14:24:21.412Z,15.70
2018-07-20T14:24:54.981Z,16.99
2018-07-20T14:25:54.987Z,16.79
2018-07-20T14:26:55.912Z,16.41
2018-07-20T14:28:16.480Z,14.83
2018-07-20T14:28:56.920Z,16.12
2018-07-20T14:29:56.459Z,14.83
2018-07-20T14:30:56.912Z,15.83
2018-07-20T14:31:56.514Z,16.62
2018-07-20T14:33:17.027Z,16.82
2018-07-20T14:33:55.980Z,15.33
2018-07-20T14:34:55.989Z,14.94
2018-07-20T14:35:55.628Z,14.15
2018-07-20T14:36:56.480Z,13.65
2018-07-20T14:37:56.480Z,14.53
2018-07-20T14:38:57.411Z,13.34
2018-07-20T14:41:27.600Z,15.52
2018-07-20T14:42:28.257Z,15.72
2018-07-20T14:43:37.234Z,14.53
2018-07-20T14:47:32.576Z,14.43
2018-07-20T14:48:52.640Z,14.24
2018-07-20T14:51:24.325Z,14.34
2018-07-20T14:52:03.309Z,14.14
2018-07-20T14:53:03.808Z,14.43
2018-07-20T14:54:03.808Z,13.35
2018-07-20T14:55:03.811Z,14.44
2018-07-20T14:56:03.809Z,14.84
2018-07-20T14:57:03.428Z,14.44
2018-07-20T14:58:04.308Z,13.95
2018-07-20T14:59:04.308Z,15.42
2018-07-20T15:00:18.321Z,13.64
2018-07-20T15:01:04.812Z,14.33
2018-07-20T15:02:04.816Z,15.13
2018-07-20T15:03:04.233Z,14.83
2018-07-20T15:04:05.308Z,14.74
2018-07-20T15:05:05.307Z,14.84
2018-07-20T15:06:05.311Z,15.13
2018-07-20T15:07:05.315Z,15.03
2018-07-20T15:08:05.308Z,14.64
2018-07-20T15:09:11.808Z,14.62
2018-07-20T15:10:32.806Z,15.42
2018-07-20T15:11:05.807Z,14.71
2018-07-20T15:12:05.809Z,15.58
2018-07-20T15:13:27.322Z,16.46
2018-07-20T15:15:37.729Z,17.52
2018-07-20T15:16:37.095Z,18.21
2018-07-20T15:17:37.719Z,17.72
2018-07-20T15:18:44.221Z,16.83
2018-07-20T15:19:38.220Z,17.82
2018-07-20T15:20:59.220Z,17.03
2018-07-20T15:21:38.221Z,18.31
2018-07-20T15:22:44.719Z,17.41
2018-07-20T15:23:37.960Z,17.21
2018-07-20T15:24:38.721Z,16.81
2018-07-20T15:25:38.727Z,17.00
2018-07-20T15:27:00.219Z,16.82
2018-07-20T15:29:12.613Z,15.84
2018-07-20T15:30:12.055Z,16.82
2018-07-20T15:31:31.624Z,17.90
2018-07-20T15:35:36.846Z,17.79
2018-07-20T15:36:13.769Z,17.98
2018-07-20T15:37:14.413Z,18.08
2018-07-20T15:38:35.913Z,18.27
2018-07-20T15:39:14.149Z,18.77
2018-07-20T15:40:14.912Z,18.18
2018-07-20T15:41:14.919Z,18.66
2018-07-20T15:42:14.527Z,18.17
2018-07-20T15:43:21.414Z,18.76
2018-07-20T15:44:15.414Z,19.35
2018-07-20T15:45:16.888Z,17.58
2018-07-20T15:46:15.993Z,19.35
2018-07-20T15:47:15.972Z,18.17
2018-07-20T15:48:15.913Z,17.77
2018-07-20T15:49:19.845Z,18.46
2018-07-20T15:50:18.415Z,18.66
2018-07-20T15:51:16.419Z,17.38
2018-07-20T15:53:43.568Z,20.04
2018-07-20T15:55:48.218Z,19.74
2018-07-20T15:56:48.226Z,19.94
2018-07-20T15:57:48.225Z,21.31
2018-07-20T15:58:48.727Z,20.53
2018-07-20T16:04:29.084Z,18.44
2018-07-20T16:05:23.091Z,18.35
2018-07-20T16:06:23.093Z,18.15
2018-07-20T16:07:44.592Z,18.15